This is the latest recevied weather packets stored in our database for station/object SV2ASS-2. If no packets are shown the sender has not sent any weather packets the latest 10 day(s).
| Time | Temp. | Humidity | Pressure | Rain* | Wind** | Luminosity | Snow |
|---|---|---|---|---|---|---|---|
| 1778133462 | 16.67° C | 57% | 1020.8 hPa | - | - | - | - |
| 1778132562 | 16.11° C | 60% | 1020.8 hPa | - | - | - | - |
| 1778131662 | 15° C | 66% | 1020.6 hPa | - | - | - | - |
| 1778130762 | 14.44° C | 68% | 1020.5 hPa | - | - | - | - |
| 1778129861 | 13.89° C | 68% | 1020.5 hPa | - | - | - | - |
| 1778128961 | 13.33° C | 68% | 1020.3 hPa | - | - | - | - |
| 1778128061 | 12.78° C | 67% | 1020.3 hPa | - | - | - | - |
| 1778127161 | 12.22° C | 66% | 1020.3 hPa | - | - | - | - |
| 1778126261 | 12.22° C | 65% | 1020 hPa | - | - | - | - |
| 1778125360 | 12.22° C | 65% | 1020 hPa | - | - | - | - |
| 1778124460 | 12.22° C | 63% | 1020 hPa | - | - | - | - |
| 1778123560 | 11.67° C | 63% | 1019.9 hPa | - | - | - | - |
| 1778122664 | 12.22° C | 62% | 1019.8 hPa | - | - | - | - |
| 1778121764 | 12.78° C | 60% | 1019.6 hPa | - | - | - | - |
| 1778120864 | 12.22° C | 61% | 1019.5 hPa | - | - | - | - |
| 1778119964 | 12.78° C | 60% | 1019.5 hPa | - | - | - | - |
| 1778119064 | 12.22° C | 60% | 1019.5 hPa | - | - | - | - |
| 1778118164 | 12.22° C | 60% | 1019.6 hPa | - | - | - | - |
| 1778117264 | 12.22° C | 60% | 1019.6 hPa | - | - | - | - |
| 1778116364 | 12.22° C | 60% | 1019.4 hPa | - | - | - | - |
| 1778115464 | 12.78° C | 60% | 1019.4 hPa | - | - | - | - |
| 1778114564 | 12.78° C | 59% | 1019.3 hPa | - | - | - | - |
| 1778113663 | 12.78° C | 59% | 1019.6 hPa | - | - | - | - |
| 1778112763 | 12.78° C | 58% | 1019.6 hPa | - | - | - | - |
| 1778111863 | 12.22° C | 59% | 1019.6 hPa | - | - | - | - |
* Rain since midnight (hover to see other rain measurements)
** Current wind speed in m/s (hover to see current wind gust speed)